createdAt,value
2022-09-20T00:00:25.812Z,4.200
2022-09-20T00:01:30.708Z,4.850
2022-09-20T00:02:24.124Z,3.300
2022-09-20T00:03:35.659Z,3.900
2022-09-20T00:04:31.193Z,3.700
2022-09-20T00:05:25.887Z,4.300
2022-09-20T00:06:21.113Z,3.600
2022-09-20T00:07:28.241Z,5.850
2022-09-20T00:08:27.532Z,5.200
2022-09-20T00:09:21.516Z,5.200
2022-09-20T00:10:36.678Z,3.500
2022-09-20T00:11:23.915Z,3.950
2022-09-20T00:12:30.236Z,5.800
2022-09-20T00:13:25.448Z,4.150
2022-09-20T00:14:30.543Z,6.600
2022-09-20T00:15:25.977Z,5.150
2022-09-20T00:16:23.289Z,6.600
2022-09-20T00:17:33.286Z,5.050
2022-09-20T00:18:23.674Z,5.100
2022-09-20T00:19:23.434Z,5.200
2022-09-20T00:20:19.543Z,4.100
2022-09-20T00:21:31.497Z,4.400
2022-09-20T00:22:27.830Z,3.800
2022-09-20T00:23:35.555Z,5.000
2022-09-20T00:24:20.559Z,3.300
2022-09-20T00:25:28.551Z,3.900
2022-09-20T00:26:24.605Z,4.850
2022-09-20T00:27:20.060Z,4.400
2022-09-20T00:28:22.915Z,3.000
2022-09-20T00:29:21.786Z,4.150
2022-09-20T00:30:24.415Z,5.700
2022-09-20T00:31:33.648Z,3.850
2022-09-20T00:32:29.435Z,5.700
2022-09-20T00:33:25.183Z,5.000
2022-09-20T00:34:21.738Z,5.150
2022-09-20T00:35:31.962Z,5.200
2022-09-20T00:36:20.285Z,6.300
2022-09-20T00:37:21.711Z,5.250
2022-09-20T00:38:31.676Z,6.650
2022-09-20T00:39:28.928Z,4.500
2022-09-20T00:40:19.774Z,4.800
2022-09-20T00:41:26.534Z,5.400
2022-09-20T00:42:34.293Z,5.300
2022-09-20T00:43:27.786Z,3.900
2022-09-20T00:44:23.726Z,4.650
2022-09-20T00:45:36.694Z,5.900
2022-09-20T00:46:30.655Z,4.300
2022-09-20T00:47:25.196Z,5.000
2022-09-20T00:48:23.386Z,4.950
2022-09-20T00:49:33.773Z,4.600
2022-09-20T00:50:32.351Z,5.100
2022-09-20T00:51:23.887Z,4.600
2022-09-20T00:52:31.686Z,4.550
2022-09-20T00:53:30.582Z,4.950
2022-09-20T00:54:28.281Z,4.500
2022-09-20T00:55:33.332Z,4.200
2022-09-20T00:56:31.336Z,4.650
2022-09-20T00:57:25.454Z,4.550
2022-09-20T00:58:25.323Z,6.500
2022-09-20T00:59:34.722Z,4.500
2022-09-20T01:00:41.098Z,3.800
2022-09-20T01:01:39.246Z,5.400
2022-09-20T01:02:27.431Z,5.200
2022-09-20T01:03:33.014Z,5.200
2022-09-20T01:04:47.207Z,4.250
2022-09-20T01:05:49.723Z,5.200
2022-09-20T02:10:35.656Z,3.500
2022-09-20T02:11:27.192Z,5.650
2022-09-20T02:12:25.757Z,4.500
2022-09-20T02:13:36.584Z,7.100
2022-09-20T02:14:23.650Z,7.300
2022-09-20T02:15:28.663Z,6.750
2022-09-20T02:17:02.921Z,4.200
2022-09-20T02:17:42.256Z,6.050
2022-09-20T02:18:24.486Z,4.900
2022-09-20T03:20:40.957Z,4.300
2022-09-20T03:21:26.894Z,3.600
2022-09-20T03:22:24.850Z,5.300
2022-09-20T03:23:20.948Z,3.800
2022-09-20T03:24:29.961Z,2.600
2022-09-20T03:25:22.053Z,6.900
2022-09-20T03:26:25.312Z,4.550
2022-09-20T03:27:30.471Z,3.500
2022-09-20T03:28:25.197Z,6.200
2022-09-20T03:29:20.050Z,4.900
2022-09-20T03:30:29.505Z,4.650
2022-09-20T03:31:28.592Z,3.700
2022-09-20T03:32:25.801Z,5.500
2022-09-20T03:33:26.320Z,4.850
2022-09-20T03:34:31.433Z,4.000
2022-09-20T03:35:25.719Z,4.850
2022-09-20T03:36:19.836Z,5.300
2022-09-20T03:37:23.334Z,5.100
2022-09-20T03:38:21.617Z,4.650
2022-09-20T03:39:21.768Z,4.500
2022-09-20T03:40:33.234Z,4.850
2022-09-20T03:41:27.547Z,4.900
2022-09-20T03:42:23.633Z,6.850
2022-09-20T03:43:33.700Z,7.300
2022-09-20T03:44:29.328Z,5.850
2022-09-20T03:45:27.957Z,4.800
2022-09-20T03:46:23.161Z,5.400
2022-09-20T03:47:33.721Z,5.350
2022-09-20T03:48:19.876Z,5.550
2022-09-20T03:49:25.591Z,3.700
2022-09-20T03:50:20.728Z,5.100
2022-09-20T03:51:34.303Z,4.700
2022-09-20T03:52:28.486Z,4.800
2022-09-20T03:53:22.843Z,5.950
2022-09-20T03:54:37.201Z,4.200
2022-09-20T03:55:24.101Z,3.950
2022-09-20T03:56:23.668Z,4.750
2022-09-20T03:57:21.990Z,4.900
2022-09-20T03:58:30.567Z,4.600
2022-09-20T03:59:28.724Z,5.400
2022-09-20T04:00:25.604Z,4.700
2022-09-20T04:01:20.140Z,4.250
2022-09-20T04:02:45.667Z,6.000
2022-09-20T04:03:24.250Z,4.650
2022-09-20T04:04:21.079Z,5.250
2022-09-20T04:05:30.279Z,5.800
2022-09-20T04:06:22.422Z,4.550
2022-09-20T04:07:26.436Z,6.000
2022-09-20T04:08:23.962Z,4.900
2022-09-20T04:09:24.787Z,5.200
2022-09-20T04:10:25.080Z,5.050
2022-09-20T04:11:20.830Z,5.000
2022-09-20T04:12:31.191Z,4.900
2022-09-20T04:13:27.011Z,4.850
2022-09-20T04:14:25.201Z,7.300
2022-09-20T04:15:34.662Z,4.450
2022-09-20T04:16:21.217Z,6.400
2022-09-20T04:17:38.713Z,6.100
2022-09-20T04:18:23.341Z,4.400
2022-09-20T04:19:33.203Z,6.200
2022-09-20T04:20:24.762Z,6.500
2022-09-20T04:21:23.685Z,5.050
2022-09-20T04:22:33.293Z,5.350
2022-09-20T04:23:27.859Z,5.600
2022-09-20T04:24:24.017Z,4.350
2022-09-20T04:25:19.960Z,4.050
2022-09-20T04:26:29.868Z,4.100
2022-09-20T04:27:25.840Z,4.000
2022-09-20T04:28:24.777Z,4.000
2022-09-20T04:29:32.844Z,5.200
2022-09-20T04:30:29.413Z,5.300
2022-09-20T04:31:24.631Z,3.750
2022-09-20T04:32:20.913Z,3.850
2022-09-20T04:33:29.678Z,4.100
2022-09-20T04:34:27.545Z,3.750
2022-09-20T04:35:22.251Z,4.100
2022-09-20T04:36:33.176Z,3.500
2022-09-20T04:37:24.011Z,4.300
2022-09-20T04:38:34.572Z,4.150
2022-09-20T04:39:19.885Z,6.900
2022-09-20T04:40:31.163Z,6.550
2022-09-20T04:41:25.594Z,4.400
2022-09-20T04:42:22.207Z,4.800
2022-09-20T04:43:33.278Z,5.800
2022-09-20T04:44:29.714Z,5.400
2022-09-20T04:45:23.768Z,4.800
2022-09-20T04:46:19.907Z,4.500
2022-09-20T04:47:30.677Z,5.500
2022-09-20T04:48:22.359Z,4.600
2022-09-20T04:49:21.727Z,5.700
2022-09-20T04:50:38.596Z,6.050
2022-09-20T04:51:27.670Z,5.800
2022-09-20T04:52:26.026Z,4.150
2022-09-20T04:53:21.041Z,5.100
2022-09-20T04:54:24.160Z,5.750
2022-09-20T04:55:27.380Z,4.350
2022-09-20T04:56:22.875Z,6.400
2022-09-20T04:57:33.895Z,4.700
2022-09-20T04:58:33.128Z,5.450
2022-09-20T04:59:23.685Z,6.100
2022-09-20T05:00:19.880Z,4.650
2022-09-20T05:01:32.312Z,3.800
2022-09-20T05:02:27.092Z,5.400
2022-09-20T05:03:23.844Z,4.650
2022-09-20T05:04:31.811Z,4.000
2022-09-20T05:05:24.255Z,2.400
2022-09-20T05:06:25.362Z,4.150
2022-09-20T05:07:21.119Z,4.900
2022-09-20T05:08:30.022Z,4.450
2022-09-20T05:09:24.381Z,4.450
2022-09-20T05:10:21.601Z,5.300
2022-09-20T05:11:22.806Z,5.400
2022-09-20T05:12:28.590Z,5.300
2022-09-20T05:13:25.663Z,5.800
2022-09-20T05:14:19.679Z,4.500
2022-09-20T05:15:30.066Z,4.850
2022-09-20T05:16:20.444Z,5.600
2022-09-20T05:17:23.405Z,5.950
2022-09-20T05:18:24.576Z,4.700
2022-09-20T05:19:28.687Z,5.100
2022-09-20T05:20:31.992Z,5.600
2022-09-20T05:21:19.954Z,6.300
2022-09-20T05:22:20.277Z,5.900
2022-09-20T05:23:26.053Z,5.900
2022-09-20T05:24:25.970Z,6.300
2022-09-20T05:25:27.605Z,6.450
2022-09-20T05:26:30.716Z,5.500
2022-09-20T05:27:26.234Z,8.000
2022-09-20T05:28:21.842Z,6.050
2022-09-20T05:29:23.735Z,4.750
2022-09-20T05:30:25.755Z,4.900
2022-09-20T05:31:22.098Z,4.750
2022-09-20T05:32:20.639Z,5.800
2022-09-20T05:33:27.210Z,4.800
2022-09-20T05:34:23.957Z,5.100
2022-09-20T05:35:20.208Z,5.700
2022-09-20T05:36:30.057Z,5.850
2022-09-20T05:37:26.008Z,5.000
2022-09-20T05:38:22.187Z,4.800
2022-09-20T05:39:29.782Z,6.250
2022-09-20T05:40:20.536Z,5.600
2022-09-20T05:41:26.041Z,5.400
2022-09-20T05:42:20.363Z,5.650
2022-09-20T05:43:29.601Z,5.200
2022-09-20T05:44:27.475Z,6.050
2022-09-20T05:45:21.811Z,4.900
2022-09-20T05:46:29.090Z,7.150
2022-09-20T05:47:23.518Z,5.600
2022-09-20T05:48:25.775Z,5.700
2022-09-20T05:49:21.588Z,6.000
2022-09-20T05:50:24.878Z,6.350
2022-09-20T05:51:29.234Z,4.550
2022-09-20T05:52:24.792Z,4.700
2022-09-20T05:53:35.140Z,5.100
2022-09-20T05:54:30.824Z,6.400
2022-09-20T05:55:24.120Z,6.100
2022-09-20T05:56:22.760Z,5.450
2022-09-20T05:57:30.191Z,5.500
2022-09-20T05:58:24.384Z,4.900
2022-09-20T05:59:21.804Z,6.200
2022-09-20T06:00:32.287Z,7.000
2022-09-20T06:01:22.071Z,6.400
2022-09-20T06:02:36.969Z,5.200
2022-09-20T06:03:21.495Z,5.400
2022-09-20T06:04:31.752Z,5.100
2022-09-20T06:05:28.943Z,4.550
2022-09-20T06:06:27.110Z,3.900
2022-09-20T06:07:28.993Z,5.050
2022-09-20T06:08:28.306Z,7.700
2022-09-20T06:09:36.177Z,5.550
2022-09-20T06:10:22.309Z,5.700
2022-09-20T06:11:32.109Z,6.050
2022-09-20T06:12:28.939Z,5.500
2022-09-20T06:13:24.595Z,5.100
2022-09-20T06:14:33.821Z,5.550
2022-09-20T06:15:28.063Z,5.500
2022-09-20T06:16:24.170Z,5.050
2022-09-20T06:17:20.682Z,3.900
2022-09-20T06:18:24.548Z,4.800
2022-09-20T06:19:26.038Z,5.050
2022-09-20T06:20:22.224Z,4.450
2022-09-20T06:21:40.391Z,4.500
2022-09-20T06:22:28.084Z,5.000
2022-09-20T06:23:26.076Z,5.550
2022-09-20T06:24:20.079Z,4.800
2022-09-20T06:25:23.049Z,5.050
2022-09-20T06:26:25.956Z,5.350
2022-09-20T06:27:22.106Z,4.100
2022-09-20T06:28:33.705Z,5.650
2022-09-20T06:29:20.695Z,5.000
2022-09-20T06:30:25.662Z,5.050
2022-09-20T06:31:20.765Z,4.800
2022-09-20T06:32:27.365Z,4.700
2022-09-20T06:33:26.898Z,6.050
2022-09-20T06:34:23.558Z,5.400
2022-09-20T06:35:26.233Z,6.850
2022-09-20T06:36:28.489Z,7.050
2022-09-20T06:37:23.997Z,6.600
2022-09-20T06:38:27.720Z,5.700
2022-09-20T06:39:45.891Z,4.450
2022-09-20T06:40:25.148Z,5.900
2022-09-20T06:41:22.177Z,5.400
2022-09-20T06:42:32.243Z,6.250
2022-09-20T06:43:30.022Z,6.400
2022-09-20T06:44:25.660Z,4.450
2022-09-20T06:45:23.753Z,6.400
2022-09-20T06:46:23.073Z,5.650
2022-09-20T06:47:26.918Z,6.700
2022-09-20T06:48:24.375Z,4.500
2022-09-20T06:49:32.912Z,5.900
2022-09-20T06:50:29.157Z,4.400
2022-09-20T06:51:26.220Z,4.350
2022-09-20T06:52:20.967Z,6.300
2022-09-20T06:53:30.238Z,6.550
2022-09-20T06:54:25.765Z,7.800
2022-09-20T06:55:28.990Z,5.800
2022-09-20T06:56:20.568Z,4.700
2022-09-20T06:57:28.171Z,5.600
2022-09-20T06:58:23.730Z,6.050
2022-09-20T06:59:21.785Z,5.900
2022-09-20T07:00:30.232Z,5.000
2022-09-20T07:01:30.656Z,4.150
2022-09-20T07:02:21.929Z,5.200
2022-09-20T07:03:25.243Z,5.900
2022-09-20T07:04:28.184Z,6.450
2022-09-20T07:05:24.729Z,4.800
2022-09-20T07:06:21.016Z,4.750
2022-09-20T07:07:32.911Z,6.800
2022-09-20T07:08:28.441Z,5.100
2022-09-20T07:09:24.482Z,4.000
2022-09-20T07:10:33.277Z,3.900
2022-09-20T07:11:37.968Z,5.800
2022-09-20T07:12:24.385Z,5.650
2022-09-20T07:13:22.690Z,5.600
2022-09-20T07:14:24.204Z,6.700
2022-09-20T07:15:26.058Z,4.650
2022-09-20T07:16:22.401Z,4.500
2022-09-20T07:17:31.945Z,5.600
2022-09-20T07:18:23.671Z,5.700
2022-09-20T07:19:24.610Z,4.500
2022-09-20T07:20:21.522Z,6.400
2022-09-20T07:21:25.211Z,4.400
2022-09-20T07:22:27.145Z,6.100
2022-09-20T07:23:23.912Z,5.650
2022-09-20T07:24:35.410Z,6.300
2022-09-20T07:25:28.020Z,6.000
2022-09-20T07:26:19.873Z,5.350
2022-09-20T07:27:24.715Z,6.100
2022-09-20T07:28:29.878Z,6.100
2022-09-20T07:29:26.155Z,5.750
2022-09-20T07:30:23.637Z,5.000
2022-09-20T07:31:24.776Z,5.900
2022-09-20T07:32:21.772Z,4.500
2022-09-20T07:33:41.063Z,5.600
2022-09-20T07:34:21.574Z,5.400
2022-09-20T07:35:31.145Z,6.650
2022-09-20T07:36:25.963Z,8.300
2022-09-20T07:37:24.106Z,4.100
2022-09-20T07:38:31.842Z,6.300
2022-09-20T07:39:28.701Z,5.500
2022-09-20T07:40:28.227Z,4.950
2022-09-20T07:41:21.671Z,5.600
2022-09-20T07:42:24.403Z,6.700
2022-09-20T07:43:19.735Z,6.150
2022-09-20T07:44:22.249Z,4.600
2022-09-20T07:45:40.615Z,7.500
2022-09-20T07:46:30.447Z,7.300
2022-09-20T07:47:23.967Z,5.100
2022-09-20T07:48:20.410Z,5.200
2022-09-20T07:49:29.725Z,6.650
2022-09-20T07:50:25.691Z,5.500
2022-09-20T07:51:23.406Z,5.500
2022-09-20T07:52:37.123Z,6.000
2022-09-20T07:53:45.364Z,6.000
2022-09-20T07:54:25.333Z,4.400
2022-09-20T07:55:20.161Z,5.450
2022-09-20T07:56:22.425Z,4.500
2022-09-20T07:57:25.923Z,5.750
2022-09-20T07:58:22.697Z,6.400
2022-09-20T07:59:22.984Z,5.700
2022-09-20T08:00:29.913Z,5.250
2022-09-20T08:01:21.720Z,5.200
2022-09-20T08:02:21.814Z,5.950
2022-09-20T08:03:27.683Z,5.250
2022-09-20T08:04:19.438Z,7.050
2022-09-20T08:05:21.810Z,6.500
2022-09-20T08:06:33.662Z,5.250
2022-09-20T08:07:28.227Z,7.400
2022-09-20T08:08:25.448Z,4.100
2022-09-20T08:09:19.991Z,4.700
2022-09-20T08:10:30.712Z,5.900
2022-09-20T08:11:29.195Z,4.950
2022-09-20T08:14:06.115Z,5.350
2022-09-20T08:14:34.837Z,5.600
2022-09-20T08:15:28.678Z,3.700
2022-09-20T08:16:19.917Z,5.800
2022-09-20T08:17:30.164Z,5.250
2022-09-20T08:18:29.065Z,5.500
2022-09-20T08:19:21.950Z,5.000
2022-09-20T08:20:34.150Z,6.900
2022-09-20T08:21:30.281Z,4.200
2022-09-20T08:22:25.755Z,4.350
2022-09-20T08:23:23.680Z,4.400
2022-09-20T08:24:30.149Z,4.350
2022-09-20T08:25:26.850Z,4.950
2022-09-20T08:26:25.894Z,4.900
2022-09-20T08:27:22.267Z,5.200
2022-09-20T08:28:27.967Z,5.500
2022-09-20T08:29:39.093Z,4.850
2022-09-20T08:30:26.975Z,5.500
2022-09-20T08:31:31.542Z,5.350
2022-09-20T08:32:26.281Z,4.400
2022-09-20T08:33:22.167Z,6.300
2022-09-20T08:34:21.949Z,5.450
2022-09-20T08:35:27.982Z,6.700
2022-09-20T08:36:26.127Z,5.550
2022-09-20T08:37:23.727Z,6.600
2022-09-20T08:39:58.872Z,6.000
2022-09-20T08:39:59.688Z,5.750
2022-09-20T08:40:22.345Z,5.200
2022-09-20T08:41:27.263Z,5.650
2022-09-20T08:42:28.177Z,5.150
2022-09-20T08:43:25.888Z,4.900
2022-09-20T08:44:20.216Z,5.600
2022-09-20T08:45:35.274Z,3.700
2022-09-20T08:46:26.041Z,6.500
2022-09-20T08:47:26.231Z,5.400
2022-09-20T08:48:20.917Z,5.700
2022-09-20T08:49:25.998Z,5.100
2022-09-20T08:50:24.219Z,5.600
2022-09-20T08:51:23.349Z,5.700
2022-09-20T08:52:35.853Z,6.250
2022-09-20T08:53:28.767Z,6.650
2022-09-20T08:54:23.895Z,4.700
2022-09-20T08:55:21.826Z,4.900
2022-09-20T08:56:27.801Z,2.900
2022-09-20T08:57:25.055Z,6.000
2022-09-20T08:58:22.360Z,4.600
2022-09-20T08:59:29.948Z,4.300
2022-09-20T09:00:27.559Z,4.700
2022-09-20T09:01:24.732Z,5.700
2022-09-20T09:02:26.627Z,6.350
2022-09-20T09:03:31.427Z,4.550
2022-09-20T09:04:24.979Z,5.200
2022-09-20T09:05:20.933Z,4.250
2022-09-20T09:06:21.831Z,4.350
2022-09-20T09:07:26.471Z,4.800
2022-09-20T09:08:21.994Z,5.450
2022-09-20T09:09:37.609Z,5.300
2022-09-20T09:10:32.413Z,6.350
2022-09-20T09:11:26.587Z,5.550
2022-09-20T09:12:23.747Z,5.100
2022-09-20T09:13:24.920Z,6.900
2022-09-20T09:14:27.601Z,6.100
2022-09-20T09:15:35.599Z,5.600
2022-09-20T09:16:36.066Z,4.050
2022-09-20T09:17:20.176Z,3.700
2022-09-20T09:18:31.760Z,4.700
2022-09-20T09:19:19.907Z,4.600
2022-09-20T09:20:32.935Z,4.300
2022-09-20T09:21:30.022Z,5.250
2022-09-20T09:22:22.040Z,4.350
2022-09-20T09:23:33.857Z,5.600
2022-09-20T09:24:23.676Z,6.500
2022-09-20T09:25:24.312Z,4.550
2022-09-20T09:26:21.655Z,3.700
2022-09-20T09:27:23.933Z,6.150
2022-09-20T09:28:26.218Z,3.300
2022-09-20T09:29:23.349Z,4.500
2022-09-20T09:30:33.478Z,4.400
2022-09-20T09:31:29.605Z,4.500
2022-09-20T09:32:26.371Z,5.200
2022-09-20T09:33:36.412Z,4.100
2022-09-20T09:34:30.011Z,4.700
2022-09-20T09:35:22.615Z,3.900
2022-09-20T09:36:37.123Z,4.900
2022-09-20T09:37:36.541Z,4.800
2022-09-20T09:38:28.612Z,5.100
2022-09-20T09:39:25.421Z,4.700
2022-09-20T09:40:24.463Z,5.000
2022-09-20T09:41:33.712Z,4.800
2022-09-20T09:42:26.104Z,4.100
2022-09-20T09:43:23.903Z,5.000
2022-09-20T09:44:32.020Z,4.450
2022-09-20T09:45:28.886Z,3.300
2022-09-20T09:46:29.434Z,4.100
2022-09-20T09:47:23.091Z,5.350
2022-09-20T09:48:29.845Z,3.400
2022-09-20T09:49:30.121Z,4.650
2022-09-20T09:50:22.823Z,4.550
2022-09-20T09:51:32.461Z,4.200
2022-09-20T09:52:32.275Z,4.550
2022-09-20T09:53:24.049Z,4.300
2022-09-20T09:54:27.560Z,3.200
2022-09-20T09:55:31.101Z,3.850
2022-09-20T09:56:25.978Z,4.600
2022-09-20T09:57:23.900Z,4.750
2022-09-20T09:58:32.865Z,5.200
2022-09-20T09:59:30.720Z,5.700
2022-09-20T10:00:29.769Z,5.900
2022-09-20T10:01:21.714Z,5.750
2022-09-20T10:02:33.259Z,4.800
2022-09-20T10:03:37.414Z,4.700
2022-09-20T10:04:28.651Z,4.700
2022-09-20T10:05:26.232Z,5.500
2022-09-20T10:06:28.301Z,7.600
2022-09-20T10:07:26.444Z,5.600
2022-09-20T10:08:20.198Z,6.550
2022-09-20T10:09:35.477Z,6.100
2022-09-20T10:10:27.393Z,6.200
2022-09-20T10:11:22.439Z,5.400
2022-09-20T10:12:28.821Z,6.100
2022-09-20T10:13:20.205Z,4.900
2022-09-20T10:14:27.525Z,5.800
2022-09-20T10:15:21.374Z,4.100
2022-09-20T10:16:31.341Z,5.250
2022-09-20T10:17:31.251Z,3.900
2022-09-20T10:18:22.413Z,4.750
2022-09-20T10:19:43.857Z,4.300
2022-09-20T10:20:26.434Z,4.100
2022-09-20T10:21:36.221Z,3.800
2022-09-20T10:22:21.300Z,4.400
2022-09-20T10:24:01.534Z,4.050
2022-09-20T10:24:31.372Z,4.150
2022-09-20T10:25:23.566Z,2.800
2022-09-20T10:26:36.504Z,3.500
2022-09-20T10:27:29.525Z,3.400
2022-09-20T10:28:21.205Z,2.900
2022-09-20T10:29:19.819Z,3.000
2022-09-20T10:30:30.239Z,3.600
2022-09-20T10:31:27.738Z,2.800
2022-09-20T10:32:22.058Z,2.600
2022-09-20T10:33:32.288Z,3.050
2022-09-20T10:34:32.178Z,2.750
2022-09-20T10:35:25.509Z,4.600
2022-09-20T10:36:22.965Z,4.050
2022-09-20T10:37:31.674Z,4.050
2022-09-20T10:38:28.943Z,2.200
2022-09-20T10:39:22.432Z,3.300
2022-09-20T10:40:23.907Z,3.200
2022-09-20T10:41:29.935Z,4.100
2022-09-20T10:42:24.274Z,2.500
2022-09-20T10:43:24.067Z,2.700
2022-09-20T10:44:33.650Z,3.700
2022-09-20T10:45:59.196Z,3.800
2022-09-20T10:46:31.910Z,3.100
2022-09-20T10:47:24.934Z,2.500
2022-09-20T10:48:30.283Z,3.250
2022-09-20T10:49:24.305Z,3.450
2022-09-20T10:50:20.275Z,4.900
2022-09-20T10:51:21.371Z,2.800
2022-09-20T10:52:31.285Z,4.450
2022-09-20T10:53:25.842Z,3.800
2022-09-20T10:54:27.884Z,3.650
2022-09-20T10:55:28.278Z,2.500
2022-09-20T10:56:26.328Z,4.050
2022-09-20T10:57:20.114Z,2.450
2022-09-20T10:58:25.355Z,3.600
2022-09-20T10:59:27.234Z,1.900
2022-09-20T11:00:22.226Z,2.500
2022-09-20T11:01:32.304Z,3.500
2022-09-20T11:02:30.927Z,3.000
2022-09-20T11:03:24.923Z,3.800
2022-09-20T11:04:25.131Z,3.200
2022-09-20T11:05:30.461Z,4.200
2022-09-20T11:06:25.380Z,2.500
2022-09-20T11:07:22.648Z,3.750
2022-09-20T11:08:34.069Z,3.400
2022-09-20T11:09:22.406Z,2.300
2022-09-20T11:10:27.421Z,2.950
2022-09-20T11:11:22.595Z,2.850
2022-09-20T11:12:33.799Z,3.400
2022-09-20T11:13:27.476Z,3.000
2022-09-20T11:14:24.823Z,3.850
2022-09-20T11:15:32.350Z,2.700
2022-09-20T11:16:28.217Z,3.150
2022-09-20T11:17:24.564Z,2.550
2022-09-20T11:18:21.876Z,4.500
2022-09-20T11:19:34.917Z,2.800
2022-09-20T11:20:28.786Z,3.900
2022-09-20T11:21:28.381Z,3.100
2022-09-20T11:22:38.266Z,4.150
2022-09-20T11:23:31.427Z,3.400
2022-09-20T11:24:24.101Z,3.050
2022-09-20T11:25:28.728Z,3.900
2022-09-20T11:26:30.405Z,3.200
2022-09-20T11:27:26.464Z,2.750
2022-09-20T11:28:22.156Z,3.250
2022-09-20T11:29:19.758Z,4.050
2022-09-20T11:30:29.985Z,2.900
2022-09-20T11:31:25.742Z,2.650
2022-09-20T11:32:21.130Z,3.600
2022-09-20T11:33:30.395Z,3.550
2022-09-20T11:34:29.967Z,3.400
2022-09-20T11:35:25.597Z,2.900
2022-09-20T11:36:23.845Z,2.550
2022-09-20T11:37:31.981Z,2.800
2022-09-20T11:38:25.949Z,3.800
2022-09-20T11:39:20.465Z,2.900
2022-09-20T11:40:30.357Z,5.200
2022-09-20T11:41:29.170Z,4.100
2022-09-20T11:42:21.830Z,2.500
2022-09-20T11:43:27.919Z,3.100
2022-09-20T11:44:23.237Z,2.600
2022-09-20T11:45:28.294Z,2.900
2022-09-20T11:46:20.005Z,3.200
2022-09-20T11:47:53.883Z,3.350
2022-09-20T11:48:26.192Z,2.450
2022-09-20T11:49:25.781Z,4.300
2022-09-20T11:50:40.600Z,1.950
2022-09-20T11:51:27.661Z,2.700
2022-09-20T11:52:25.797Z,2.850
2022-09-20T11:53:21.240Z,2.250
2022-09-20T11:54:30.103Z,2.450
2022-09-20T11:55:25.132Z,3.500
2022-09-20T11:56:22.340Z,3.150
2022-09-20T11:57:32.057Z,3.700
2022-09-20T11:58:30.378Z,2.250
2022-09-20T11:59:24.306Z,2.850
2022-09-20T12:00:21.760Z,2.300
2022-09-20T12:01:31.693Z,2.550
2022-09-20T12:02:26.337Z,3.300
2022-09-20T12:03:26.491Z,3.100
2022-09-20T12:04:36.767Z,5.300
2022-09-20T12:05:31.787Z,2.000
2022-09-20T12:06:25.820Z,2.700
2022-09-20T12:07:22.226Z,3.600
2022-09-20T12:08:30.162Z,3.400
2022-09-20T12:09:28.109Z,2.800
2022-09-20T12:10:22.587Z,3.100
2022-09-20T12:11:31.897Z,2.600
2022-09-20T12:12:29.867Z,3.400
2022-09-20T12:13:27.737Z,3.600
2022-09-20T12:14:23.486Z,2.500
2022-09-20T12:15:33.241Z,2.700
2022-09-20T12:16:27.609Z,2.800
2022-09-20T12:17:24.525Z,2.600
2022-09-20T12:18:39.799Z,3.450
2022-09-20T12:19:28.030Z,4.000
2022-09-20T12:20:29.961Z,4.000
2022-09-20T12:21:20.411Z,3.450
2022-09-20T12:22:20.574Z,3.200
2022-09-20T12:23:23.532Z,3.200
2022-09-20T12:24:23.279Z,3.900
2022-09-20T12:25:23.224Z,3.100
2022-09-20T12:26:30.044Z,4.700
2022-09-20T12:27:27.610Z,3.300
2022-09-20T12:28:23.802Z,2.000
2022-09-20T12:29:28.947Z,2.900
2022-09-20T12:30:27.865Z,2.200
2022-09-20T12:31:22.135Z,2.800
2022-09-20T12:32:26.902Z,3.100
2022-09-20T12:33:28.625Z,2.650
2022-09-20T12:34:23.907Z,2.800
2022-09-20T12:35:20.976Z,2.550
2022-09-20T12:36:32.323Z,3.100
2022-09-20T12:37:21.868Z,2.900
2022-09-20T12:38:28.072Z,1.900
2022-09-20T12:39:30.128Z,3.600
2022-09-20T12:40:26.793Z,3.050
2022-09-20T12:41:28.544Z,3.700
2022-09-20T12:42:22.159Z,3.300
2022-09-20T12:43:20.911Z,2.850
2022-09-20T12:44:30.197Z,2.550
2022-09-20T12:45:22.065Z,2.900
2022-09-20T12:46:30.513Z,3.400
2022-09-20T12:47:28.323Z,1.950
2022-09-20T12:48:24.731Z,2.700
2022-09-20T12:49:21.903Z,3.100
2022-09-20T12:50:24.543Z,3.200
2022-09-20T12:51:23.310Z,2.300
2022-09-20T12:52:25.360Z,3.150
2022-09-20T12:53:32.243Z,2.600
2022-09-20T12:54:29.655Z,3.600
2022-09-20T12:55:25.394Z,3.300
2022-09-20T12:56:21.886Z,2.650
2022-09-20T12:57:28.713Z,3.700
2022-09-20T12:58:27.939Z,3.400
2022-09-20T12:59:24.741Z,3.400
2022-09-20T13:00:20.787Z,4.750
2022-09-20T13:01:22.155Z,2.950
2022-09-20T13:02:24.400Z,3.100
2022-09-20T13:03:21.199Z,3.250
2022-09-20T13:04:30.167Z,2.700
2022-09-20T13:05:26.291Z,3.600
2022-09-20T13:06:23.394Z,3.100
2022-09-20T13:07:27.297Z,3.200
2022-09-20T13:08:28.977Z,3.200
2022-09-20T13:09:24.380Z,3.600
2022-09-20T13:10:21.951Z,3.100
2022-09-20T13:11:33.945Z,2.400
2022-09-20T13:12:19.779Z,2.400
2022-09-20T13:13:22.175Z,3.900
2022-09-20T13:14:32.010Z,4.150
2022-09-20T13:15:23.064Z,3.250
2022-09-20T13:16:26.380Z,2.700
2022-09-20T13:17:24.307Z,3.150
2022-09-20T13:18:30.024Z,2.900
2022-09-20T13:19:22.825Z,2.500
2022-09-20T13:20:22.495Z,3.500
2022-09-20T13:21:33.108Z,2.900
2022-09-20T13:22:32.181Z,3.350
2022-09-20T13:23:24.199Z,1.700
2022-09-20T13:24:20.270Z,3.000
2022-09-20T13:25:25.251Z,3.300
2022-09-20T13:26:26.844Z,2.300
2022-09-20T13:27:23.357Z,2.950
2022-09-20T13:28:47.839Z,3.250
2022-09-20T13:29:31.397Z,2.800
2022-09-20T13:30:24.107Z,3.800
2022-09-20T13:31:21.454Z,2.900
2022-09-20T13:32:30.861Z,3.300
2022-09-20T13:33:29.950Z,2.400
2022-09-20T13:34:23.081Z,2.500
2022-09-20T13:35:24.955Z,4.550
2022-09-20T13:36:22.946Z,2.700
2022-09-20T13:37:24.190Z,3.550
2022-09-20T13:38:34.412Z,3.700
2022-09-20T13:39:34.066Z,2.900
2022-09-20T13:40:37.005Z,4.600
2022-09-20T13:41:26.458Z,4.500
2022-09-20T13:42:27.250Z,4.900
2022-09-20T13:43:31.300Z,3.950
2022-09-20T13:44:26.977Z,3.600
2022-09-20T13:45:20.977Z,3.200
2022-09-20T13:46:30.424Z,3.150
2022-09-20T13:47:26.368Z,2.800
2022-09-20T13:48:22.197Z,3.300
2022-09-20T13:49:33.251Z,3.450
2022-09-20T13:50:30.473Z,2.700
2022-09-20T13:51:24.028Z,3.000
2022-09-20T13:52:20.709Z,2.700
2022-09-20T13:53:41.608Z,3.700
2022-09-20T13:54:26.407Z,2.350
2022-09-20T13:55:25.752Z,3.000
2022-09-20T13:56:34.554Z,3.400
2022-09-20T13:57:28.322Z,3.450
2022-09-20T13:58:24.583Z,2.900
2022-09-20T13:59:20.980Z,2.950
2022-09-20T14:00:25.461Z,2.700
2022-09-20T14:01:44.354Z,2.600
2022-09-20T14:02:22.560Z,3.100
2022-09-20T14:03:32.259Z,3.550
2022-09-20T14:04:22.551Z,3.100
2022-09-20T14:05:24.447Z,3.700
2022-09-20T14:06:24.353Z,3.400
2022-09-20T14:07:32.155Z,2.650
2022-09-20T14:08:26.606Z,5.600
2022-09-20T14:09:27.099Z,3.400
2022-09-20T14:10:25.815Z,3.050
2022-09-20T14:11:32.201Z,3.900
2022-09-20T14:12:24.852Z,2.300
2022-09-20T14:13:22.320Z,3.350
2022-09-20T14:14:30.146Z,2.450
2022-09-20T14:15:26.796Z,2.400
2022-09-20T14:16:22.439Z,4.650
2022-09-20T14:17:20.920Z,3.800
2022-09-20T14:18:30.271Z,4.300
2022-09-20T14:19:25.801Z,4.400
2022-09-20T14:20:22.090Z,2.500
2022-09-20T14:21:23.289Z,2.550
2022-09-20T14:22:26.580Z,3.200
2022-09-20T14:23:26.721Z,2.950
2022-09-20T14:24:28.954Z,3.450
2022-09-20T14:25:29.474Z,3.700
2022-09-20T14:26:25.043Z,3.000
2022-09-20T14:27:21.709Z,2.900
2022-09-20T14:28:30.048Z,2.850
2022-09-20T14:29:28.408Z,2.500
2022-09-20T14:30:22.329Z,2.400
2022-09-20T14:31:22.822Z,3.500
2022-09-20T14:32:20.285Z,3.000
2022-09-20T14:33:26.261Z,3.800
2022-09-20T14:34:20.271Z,3.050
2022-09-20T14:35:21.668Z,2.400
2022-09-20T14:36:21.920Z,3.650
2022-09-20T14:37:34.295Z,2.750
2022-09-20T14:38:25.092Z,2.600
2022-09-20T14:39:28.154Z,2.850
2022-09-20T14:40:27.563Z,4.000
2022-09-20T14:41:20.263Z,4.000
2022-09-20T14:42:28.732Z,2.550
2022-09-20T14:43:27.496Z,2.900
2022-09-20T14:44:22.377Z,3.100
2022-09-20T14:45:29.205Z,3.800
2022-09-20T14:46:22.165Z,2.400
2022-09-20T14:47:24.107Z,3.050
2022-09-20T14:48:20.531Z,3.200
2022-09-20T14:49:24.029Z,2.900
2022-09-20T14:50:28.404Z,2.500
2022-09-20T14:51:24.372Z,3.000
2022-09-20T14:52:35.490Z,2.900
2022-09-20T14:53:24.035Z,3.000
2022-09-20T14:54:19.744Z,2.200
2022-09-20T14:55:20.949Z,2.850
2022-09-20T14:56:30.886Z,3.550
2022-09-20T14:57:28.828Z,3.500
2022-09-20T14:58:23.307Z,2.700